RELEVES METEO NEUVILLE
Donnes mto: Actuelle samedi, 21/05/2022 16:45
Date Horaire Temp. E. Hum. E. P.atmo. Pluie Vent Direction Direction P. de rose Temp au vent Rafales
21/05/2022 16:45 20,2 C 58 % 1020,6 hPa 0,0 mm 2,0 km/h (1 Bft) N-NO 327 11,7 C 20,2 C 9,7 km/h (2 Bft)
21/05/2022 16:40 20,2 C 57 % 1020,7 hPa 0,0 mm 0,7 km/h (0 Bft) O 267 11,4 C 20,2 C 11,3 km/h (2 Bft)
21/05/2022 16:35 19,9 C 58 % 1020,7 hPa 0,0 mm 1,7 km/h (1 Bft) O 263 11,4 C 19,9 C 12,9 km/h (3 Bft)
21/05/2022 16:30 20,4 C 59 % 1020,7 hPa 0,0 mm 0,4 km/h (0 Bft) NO 314 12,1 C 20,4 C 3,2 km/h (1 Bft)
21/05/2022 16:25 19,8 C 60 % 1020,8 hPa 0,0 mm 0,6 km/h (0 Bft) O-SO 254 11,8 C 19,8 C 6,4 km/h (2 Bft)
21/05/2022 16:20 19,5 C 61 % 1020,9 hPa 0,0 mm 0,3 km/h (0 Bft) O 260 11,8 C 19,5 C 3,2 km/h (1 Bft)
21/05/2022 16:15 19,6 C 59 % 1020,9 hPa 0,0 mm 0,3 km/h (0 Bft) O-NO 303 11,4 C 19,6 C 6,4 km/h (2 Bft)
21/05/2022 16:10 19,9 C 58 % 1021,0 hPa 0,0 mm 0,4 km/h (0 Bft) N-NO 337 11,4 C 19,9 C 6,4 km/h (2 Bft)
21/05/2022 16:05 19,8 C 59 % 1021,0 hPa 0,0 mm 0,3 km/h (0 Bft) N-NE 17 11,6 C 19,8 C 4,8 km/h (1 Bft)
21/05/2022 16:00 19,8 C 59 % 1021,1 hPa 0,0 mm 1,2 km/h (1 Bft) N-NE 17 11,6 C 19,8 C 9,7 km/h (2 Bft)
21/05/2022 15:55 19,7 C 60 % 1021,2 hPa 0,0 mm 1,1 km/h (1 Bft) N-NE 17 11,7 C 19,7 C 9,7 km/h (2 Bft)
21/05/2022 15:50 19,7 C 59 % 1021,1 hPa 0,0 mm 2,5 km/h (1 Bft) NE 47 11,5 C 19,7 C 11,3 km/h (2 Bft)
21/05/2022 15:45 19,5 C 58 % 1021,2 hPa 0,0 mm 0,9 km/h (0 Bft) O-NO 299 11,0 C 19,5 C 9,7 km/h (2 Bft)
21/05/2022 15:40 19,2 C 59 % 1021,2 hPa 0,0 mm 0,7 km/h (0 Bft) O-SO 242 11,0 C 19,2 C 8,0 km/h (2 Bft)
21/05/2022 15:35 18,9 C 58 % 1021,2 hPa 0,0 mm 0,7 km/h (0 Bft) S 184 10,5 C 18,9 C 8,0 km/h (2 Bft)
21/05/2022 15:30 19,6 C 57 % 1021,3 hPa 0,0 mm 2,7 km/h (1 Bft) O-SO 237 10,8 C 19,6 C 12,9 km/h (3 Bft)
21/05/2022 15:25 19,9 C 60 % 1021,3 hPa 0,0 mm 1,3 km/h (1 Bft) N 360 11,9 C 19,9 C 8,0 km/h (2 Bft)
21/05/2022 15:20 19,5 C 59 % 1021,4 hPa 0,0 mm 0,8 km/h (0 Bft) O 277 11,3 C 19,5 C 8,0 km/h (2 Bft)
21/05/2022 15:15 19,8 C 59 % 1021,3 hPa 0,0 mm 0,3 km/h (0 Bft) NO 317 11,6 C 19,8 C 6,4 km/h (2 Bft)
21/05/2022 15:10 19,8 C 59 % 1021,3 hPa 0,0 mm 1,4 km/h (1 Bft) O 274 11,6 C 19,8 C 11,3 km/h (2 Bft)
21/05/2022 15:05 19,4 C 59 % 1021,3 hPa 0,0 mm 1,5 km/h (1 Bft) O-SO 250 11,2 C 19,4 C 12,9 km/h (3 Bft)
_ Min-Heure 02:30 15:30 16:45 - 00:00 - - 01:30 02:30 01:00
Minimum _ 9,9 C 57 % 1020,6 hPa - 0,0 km/h (0 Bft) - - 8,5 C 10,1 C 0,0 km/h (0 Bft)
_ Max-Heure 16:30 02:30 11:05 00:00 11:00 - - 10:45 16:30 11:15
Maximum _ 20,4 C 90 % 1022,8 hPa 0,0 mm 3,5 km/h
SO (1 Bft)
- - 12,7 C 20,4 C 17,7 km/h
S-SO (3 Bft)
Moyenne _ 16,5 C 72 % 1022,0 hPa #0,0 mm 1,0 km/h (0 Bft) SO - 11,3 C 16,5 C 8,5 km/h (2 Bft)
NEUVILLE ST REMY